createdAt,value
2018-07-06T00:02:39.332Z,99622.00
2018-07-06T00:05:30.802Z,99622.00
2018-07-06T00:08:22.348Z,99626.00
2018-07-06T00:11:13.860Z,99629.00
2018-07-06T00:14:09.610Z,99632.00
2018-07-06T00:16:55.301Z,99630.00
2018-07-06T00:19:48.089Z,99633.00
2018-07-06T00:22:39.393Z,99642.00
2018-07-06T00:25:30.665Z,99638.00
2018-07-06T00:28:21.859Z,99641.00
2018-07-06T00:31:13.218Z,99642.00
2018-07-06T00:34:05.450Z,99645.00
2018-07-06T00:36:56.842Z,99649.00
2018-07-06T00:39:48.065Z,99656.00
2018-07-06T00:42:39.565Z,99657.00
2018-07-06T00:45:31.051Z,99658.00
2018-07-06T00:48:22.274Z,99667.00
2018-07-06T00:51:10.389Z,99672.00
2018-07-06T00:54:01.712Z,99676.00
2018-07-06T00:56:53.023Z,99676.00
2018-07-06T00:59:44.117Z,99678.00
2018-07-06T01:02:35.369Z,99681.00
2018-07-06T01:05:20.886Z,99686.00
2018-07-06T01:08:12.394Z,99687.00
2018-07-06T01:10:57.934Z,99692.00
2018-07-06T01:13:49.361Z,99699.00
2018-07-06T01:16:40.771Z,99701.00
2018-07-06T01:19:31.945Z,99711.00
2018-07-06T01:22:23.465Z,99710.00
2018-07-06T01:25:14.969Z,99712.00
2018-07-06T01:28:06.610Z,99707.00
2018-07-06T01:30:57.790Z,99706.00
2018-07-06T01:33:48.960Z,99710.00
2018-07-06T01:36:40.431Z,99714.00
2018-07-06T01:39:31.629Z,99720.00
2018-07-06T01:42:23.176Z,99726.00
2018-07-06T01:45:14.410Z,99724.00
2018-07-06T01:48:05.734Z,99723.00
2018-07-06T01:50:57.297Z,99724.00
2018-07-06T01:53:48.480Z,99722.00
2018-07-06T01:56:34.112Z,99719.00
2018-07-06T01:59:25.412Z,99719.00
2018-07-06T02:02:10.936Z,99720.00
2018-07-06T02:05:02.210Z,99717.00
2018-07-06T02:07:53.458Z,99722.00
2018-07-06T02:10:44.741Z,99720.00
2018-07-06T02:13:36.085Z,99720.00
2018-07-06T02:16:27.540Z,99720.00
2018-07-06T02:19:19.820Z,99728.00
2018-07-06T02:22:11.228Z,99736.00
2018-07-06T02:25:02.646Z,99738.00
2018-07-06T02:27:53.933Z,99746.00
2018-07-06T02:30:39.502Z,99749.00
2018-07-06T02:33:38.670Z,99748.00
2018-07-06T02:36:30.096Z,99753.00
2018-07-06T02:39:24.308Z,99757.00
2018-07-06T02:42:15.563Z,99761.00
2018-07-06T02:45:07.062Z,99769.00
2018-07-06T02:47:58.325Z,99770.00
2018-07-06T02:50:49.893Z,99773.00
2018-07-06T02:53:40.988Z,99782.00
2018-07-06T02:56:32.428Z,99790.00
2018-07-06T02:59:24.011Z,99786.00
2018-07-06T03:02:15.353Z,99789.00
2018-07-06T03:05:00.929Z,99797.00
2018-07-06T03:07:52.360Z,99800.00
2018-07-06T03:10:43.805Z,99800.00
2018-07-06T03:13:29.436Z,99804.00
2018-07-06T03:16:20.693Z,99802.00
2018-07-06T03:19:12.211Z,99803.00
2018-07-06T03:22:03.733Z,99803.00
2018-07-06T03:24:55.125Z,99803.00
2018-07-06T03:27:46.502Z,99813.00
2018-07-06T03:30:37.942Z,99812.00
2018-07-06T03:33:29.252Z,99814.00
2018-07-06T03:36:20.868Z,99819.00
2018-07-06T03:39:12.256Z,99824.00
2018-07-06T03:42:03.624Z,99822.00
2018-07-06T03:44:54.839Z,99824.00
2018-07-06T03:47:46.264Z,99820.00
2018-07-06T03:50:40.539Z,99826.00
2018-07-06T03:53:31.833Z,99825.00
2018-07-06T03:56:25.240Z,99831.00
2018-07-06T03:59:16.475Z,99831.00
2018-07-06T04:02:15.509Z,99837.00
2018-07-06T04:05:06.996Z,99843.00
2018-07-06T04:08:08.157Z,99840.00
2018-07-06T04:10:59.287Z,99846.00
2018-07-06T04:13:50.783Z,99854.00
2018-07-06T04:16:41.978Z,99859.00
2018-07-06T04:19:33.465Z,99860.00
2018-07-06T04:22:19.168Z,99859.00
2018-07-06T04:25:10.670Z,99868.00
2018-07-06T04:28:02.293Z,99867.00
2018-07-06T04:30:53.679Z,99873.00
2018-07-06T04:33:45.311Z,99877.00
2018-07-06T04:36:30.831Z,99878.00
2018-07-06T04:39:22.212Z,99885.00
2018-07-06T04:42:13.605Z,99882.00
2018-07-06T04:45:04.896Z,99887.00
2018-07-06T04:47:56.271Z,99883.00
2018-07-06T04:50:47.811Z,99882.00
2018-07-06T04:53:39.425Z,99882.00
2018-07-06T04:56:30.797Z,99884.00
2018-07-06T04:59:23.308Z,99885.00
2018-07-06T05:02:14.667Z,99891.00
2018-07-06T05:05:00.041Z,99890.00
2018-07-06T05:07:45.552Z,99892.00
2018-07-06T05:10:36.828Z,99890.00
2018-07-06T05:13:28.195Z,99898.00
2018-07-06T05:16:19.696Z,99899.00
2018-07-06T05:19:11.049Z,99903.00
2018-07-06T05:22:02.467Z,99903.00
2018-07-06T05:24:53.718Z,99911.00
2018-07-06T05:27:45.090Z,99912.00
2018-07-06T05:30:37.463Z,99915.00
2018-07-06T05:33:28.797Z,99918.00
2018-07-06T05:36:20.062Z,99924.00
2018-07-06T05:39:11.408Z,99926.00
2018-07-06T05:42:02.768Z,99927.00
2018-07-06T05:44:54.152Z,99925.00
2018-07-06T05:47:45.439Z,99930.00
2018-07-06T05:50:36.964Z,99930.00
2018-07-06T05:53:28.234Z,99939.00
2018-07-06T05:56:19.667Z,99941.00
2018-07-06T05:59:11.062Z,99936.00
2018-07-06T06:02:02.453Z,99932.00
2018-07-06T06:04:53.724Z,99937.00
2018-07-06T06:07:26.334Z,99939.00
2018-07-06T06:09:53.999Z,99938.00
2018-07-06T06:12:21.706Z,99941.00
2018-07-06T06:14:50.299Z,99934.00
2018-07-06T06:17:18.116Z,99943.00
2018-07-06T06:19:45.784Z,99946.00
2018-07-06T06:22:13.479Z,99945.00
2018-07-06T06:24:41.156Z,99945.00
2018-07-06T06:27:08.920Z,99948.00
2018-07-06T06:29:37.104Z,99953.00
2018-07-06T06:32:05.994Z,99954.00
2018-07-06T06:34:33.770Z,99954.00
2018-07-06T06:37:02.125Z,99962.00
2018-07-06T06:39:30.708Z,99966.00
2018-07-06T06:41:58.639Z,99966.00
2018-07-06T06:44:26.527Z,99963.00
2018-07-06T06:46:54.768Z,99969.00
2018-07-06T06:49:22.512Z,99969.00
2018-07-06T06:51:50.172Z,99978.00
2018-07-06T06:54:17.901Z,99975.00
2018-07-06T06:56:45.643Z,99982.00
2018-07-06T06:59:13.880Z,99981.00
2018-07-06T07:01:58.014Z,99992.00
2018-07-06T07:04:25.844Z,99988.00
2018-07-06T07:06:53.608Z,99991.00
2018-07-06T07:09:21.490Z,99993.00
2018-07-06T07:11:49.198Z,99999.00
2018-07-06T07:14:17.148Z,99994.00
2018-07-06T07:16:44.868Z,99996.00
2018-07-06T07:19:12.889Z,99992.00
2018-07-06T07:21:40.602Z,99998.00
2018-07-06T07:24:08.381Z,99996.00
2018-07-06T07:26:37.781Z,99992.00
2018-07-06T07:29:05.513Z,99998.00
2018-07-06T07:31:33.298Z,100000.00
2018-07-06T07:34:01.133Z,99991.00
2018-07-06T07:36:28.933Z,99994.00
2018-07-06T07:38:56.644Z,100000.00
2018-07-06T07:41:25.727Z,99997.00
2018-07-06T07:43:53.734Z,100003.00
2018-07-06T07:46:21.518Z,100004.00
2018-07-06T07:48:49.205Z,100012.00
2018-07-06T07:52:03.748Z,100015.00
2018-07-06T07:54:40.270Z,100020.00
2018-07-06T07:57:08.193Z,100022.00
2018-07-06T07:59:36.126Z,100024.00
2018-07-06T08:02:04.033Z,100023.00
2018-07-06T08:04:31.984Z,100028.00
2018-07-06T08:06:59.753Z,100033.00
2018-07-06T08:09:27.701Z,100028.00
2018-07-06T08:11:56.828Z,100035.00
2018-07-06T08:14:24.674Z,100036.00
2018-07-06T08:16:52.412Z,100045.00
2018-07-06T08:19:20.807Z,100049.00
2018-07-06T08:21:48.564Z,100048.00
2018-07-06T08:24:16.877Z,100048.00
2018-07-06T08:26:45.339Z,100052.00
2018-07-06T08:29:13.048Z,100045.00
2018-07-06T08:31:41.195Z,100054.00
2018-07-06T08:34:26.501Z,100056.00
2018-07-06T08:37:41.895Z,100053.00
2018-07-06T08:40:09.608Z,100055.00
2018-07-06T08:42:38.605Z,100059.00
2018-07-06T08:45:06.792Z,100062.00
2018-07-06T08:47:34.560Z,100057.00
2018-07-06T08:50:02.855Z,100063.00
2018-07-06T08:52:30.871Z,100062.00
2018-07-06T08:54:58.527Z,100048.00
2018-07-06T08:57:28.035Z,100059.00
2018-07-06T08:59:55.682Z,100065.00
2018-07-06T09:02:23.727Z,100063.00
2018-07-06T09:04:52.425Z,100060.00
2018-07-06T09:07:20.161Z,100067.00
2018-07-06T09:09:48.100Z,100070.00
2018-07-06T09:12:15.721Z,100068.00
2018-07-06T09:14:43.600Z,100064.00
2018-07-06T09:17:12.449Z,100069.00
2018-07-06T09:19:40.319Z,100069.00
2018-07-06T09:22:07.913Z,100066.00
2018-07-06T09:24:35.809Z,100060.00
2018-07-06T09:27:03.528Z,100056.00
2018-07-06T09:29:31.180Z,100055.00
2018-07-06T09:31:58.928Z,100056.00
2018-07-06T09:34:26.508Z,100072.00
2018-07-06T09:36:54.291Z,100069.00
2018-07-06T09:39:21.949Z,100074.00
2018-07-06T09:41:49.856Z,100072.00
2018-07-06T09:44:17.457Z,100065.00
2018-07-06T09:46:45.271Z,100069.00
2018-07-06T09:49:13.512Z,100069.00
2018-07-06T09:51:41.051Z,100071.00
2018-07-06T09:54:08.682Z,100073.00
2018-07-06T09:56:36.340Z,100073.00
2018-07-06T09:59:04.069Z,100073.00
2018-07-06T10:01:31.742Z,100062.00
2018-07-06T10:03:59.387Z,100066.00
2018-07-06T10:06:27.099Z,100069.00
2018-07-06T10:08:54.764Z,100067.00
2018-07-06T10:11:22.862Z,100063.00
2018-07-06T10:13:50.583Z,100058.00
2018-07-06T10:16:18.288Z,100061.00
2018-07-06T10:18:45.873Z,100069.00
2018-07-06T10:21:13.560Z,100069.00
2018-07-06T10:23:41.173Z,100069.00
2018-07-06T10:26:08.874Z,100072.00
2018-07-06T10:31:04.538Z,100066.00
2018-07-06T10:33:32.405Z,100077.00
2018-07-06T10:36:00.010Z,100078.00
2018-07-06T10:38:27.611Z,100068.00
2018-07-06T10:40:55.539Z,100067.00
2018-07-06T10:43:23.265Z,100064.00
2018-07-06T10:45:50.838Z,100066.00
2018-07-06T10:48:18.473Z,100062.00
2018-07-06T10:50:46.131Z,100064.00
2018-07-06T10:53:13.765Z,100062.00
2018-07-06T10:55:41.484Z,100060.00
2018-07-06T10:58:09.128Z,100054.00
2018-07-06T11:00:36.803Z,100060.00
2018-07-06T11:03:04.445Z,100059.00
2018-07-06T11:05:32.081Z,100051.00
2018-07-06T11:07:59.708Z,100058.00
2018-07-06T11:10:27.308Z,100049.00
2018-07-06T11:12:55.003Z,100058.00
2018-07-06T11:15:22.673Z,100066.00
2018-07-06T11:17:50.440Z,100052.00
2018-07-06T11:20:18.121Z,100052.00
2018-07-06T11:22:45.805Z,100056.00
2018-07-06T11:25:13.413Z,100048.00
2018-07-06T11:27:41.121Z,100051.00
2018-07-06T11:30:08.885Z,100054.00
2018-07-06T11:32:36.461Z,100059.00
2018-07-06T11:35:04.362Z,100051.00
2018-07-06T11:37:32.106Z,100050.00
2018-07-06T11:39:59.733Z,100049.00
2018-07-06T11:42:27.480Z,100048.00
2018-07-06T11:44:55.175Z,100050.00
2018-07-06T11:47:22.766Z,100050.00
2018-07-06T11:49:50.518Z,100055.00
2018-07-06T11:52:18.165Z,100051.00
2018-07-06T11:54:54.153Z,100045.00
2018-07-06T11:57:21.792Z,100053.00
2018-07-06T11:59:49.458Z,100049.00
2018-07-06T12:02:17.095Z,100049.00
2018-07-06T12:04:44.712Z,100050.00
2018-07-06T12:07:12.432Z,100050.00
2018-07-06T12:09:40.021Z,100041.00
2018-07-06T12:12:07.652Z,100037.00
2018-07-06T12:14:35.332Z,100045.00
2018-07-06T12:17:03.203Z,100047.00
2018-07-06T12:19:30.805Z,100040.00
2018-07-06T12:21:58.429Z,100043.00
2018-07-06T12:24:26.145Z,100045.00
2018-07-06T12:26:53.785Z,100047.00
2018-07-06T12:29:21.370Z,100046.00
2018-07-06T12:31:49.157Z,100039.00
2018-07-06T12:34:16.738Z,100041.00
2018-07-06T12:36:44.405Z,100039.00
2018-07-06T12:39:12.372Z,100044.00
2018-07-06T12:41:40.011Z,100041.00
2018-07-06T12:44:07.728Z,100039.00
2018-07-06T12:46:35.407Z,100049.00
2018-07-06T12:49:03.141Z,100051.00
2018-07-06T12:51:30.772Z,100047.00
2018-07-06T12:53:58.405Z,100053.00
2018-07-06T12:56:26.646Z,100047.00
2018-07-06T12:58:54.636Z,100046.00
2018-07-06T13:01:22.333Z,100045.00
2018-07-06T13:03:49.935Z,100039.00
2018-07-06T13:25:49.248Z,100041.00
2018-07-06T13:28:16.923Z,100055.00
2018-07-06T13:30:44.689Z,100059.00
2018-07-06T13:33:12.364Z,100068.00
2018-07-06T13:35:40.044Z,100061.00
2018-07-06T13:38:07.697Z,100057.00
2018-07-06T13:40:35.360Z,100067.00
2018-07-06T13:43:03.276Z,100070.00
2018-07-06T13:45:30.981Z,100069.00
2018-07-06T13:47:58.594Z,100059.00
2018-07-06T13:50:26.334Z,100069.00
2018-07-06T13:52:53.990Z,100068.00
2018-07-06T13:55:21.657Z,100071.00
2018-07-06T13:57:49.364Z,100069.00
2018-07-06T14:00:17.166Z,100065.00
2018-07-06T14:02:44.805Z,100071.00
2018-07-06T14:05:12.679Z,100073.00
2018-07-06T14:07:40.357Z,100070.00
2018-07-06T14:10:08.103Z,100061.00
2018-07-06T14:12:35.772Z,100060.00
2018-07-06T14:15:03.504Z,100071.00
2018-07-06T14:17:31.187Z,100068.00
2018-07-06T14:19:58.947Z,100069.00
2018-07-06T14:22:26.955Z,100070.00
2018-07-06T14:24:54.681Z,100073.00
2018-07-06T14:27:22.428Z,100070.00
2018-07-06T14:29:50.055Z,100077.00
2018-07-06T14:32:17.715Z,100072.00
2018-07-06T14:34:45.984Z,100076.00
2018-07-06T14:37:13.727Z,100080.00
2018-07-06T14:39:41.432Z,100080.00
2018-07-06T14:42:09.771Z,100087.00
2018-07-06T14:44:37.403Z,100078.00
2018-07-06T14:47:05.131Z,100083.00
2018-07-06T14:49:32.827Z,100087.00
2018-07-06T14:52:00.529Z,100088.00
2018-07-06T14:54:28.223Z,100092.00
2018-07-06T14:56:55.936Z,100083.00
2018-07-06T14:59:24.325Z,100093.00
2018-07-06T15:01:52.025Z,100083.00
2018-07-06T15:04:20.097Z,100081.00
2018-07-06T15:06:47.868Z,100089.00
2018-07-06T15:09:15.512Z,100088.00
2018-07-06T15:11:43.153Z,100094.00
2018-07-06T15:14:10.840Z,100107.00
2018-07-06T15:16:38.443Z,100101.00
2018-07-06T15:19:06.183Z,100097.00
2018-07-06T15:21:33.885Z,100095.00
2018-07-06T15:24:01.631Z,100097.00
2018-07-06T15:26:29.328Z,100098.00
2018-07-06T15:28:57.010Z,100102.00
2018-07-06T15:31:24.699Z,100097.00
2018-07-06T15:33:52.304Z,100096.00
2018-07-06T15:36:19.957Z,100091.00
2018-07-06T15:38:47.619Z,100092.00
2018-07-06T15:41:15.381Z,100088.00
2018-07-06T15:43:43.150Z,100089.00
2018-07-06T15:46:10.827Z,100089.00
2018-07-06T15:48:38.593Z,100081.00
2018-07-06T15:51:06.445Z,100088.00
2018-07-06T15:53:38.848Z,100080.00
2018-07-06T15:56:06.448Z,100083.00
2018-07-06T15:58:34.140Z,100080.00
2018-07-06T16:01:01.759Z,100086.00
2018-07-06T16:03:29.433Z,100082.00
2018-07-06T16:05:57.044Z,100084.00
2018-07-06T16:08:24.757Z,100083.00
2018-07-06T16:10:52.416Z,100078.00
2018-07-06T16:13:20.016Z,100073.00
2018-07-06T16:15:47.773Z,100072.00
2018-07-06T16:18:15.405Z,100072.00
2018-07-06T16:20:43.113Z,100068.00
2018-07-06T16:23:10.730Z,100065.00
2018-07-06T16:25:38.396Z,100063.00
2018-07-06T16:28:06.160Z,100063.00
2018-07-06T16:30:33.778Z,100066.00
2018-07-06T16:33:01.624Z,100061.00
2018-07-06T16:35:29.325Z,100059.00
2018-07-06T16:37:57.499Z,100060.00
2018-07-06T16:40:25.177Z,100055.00
2018-07-06T16:42:52.830Z,100058.00
2018-07-06T16:45:20.482Z,100053.00
2018-07-06T16:47:48.285Z,100055.00
2018-07-06T16:50:15.958Z,100049.00
2018-07-06T16:52:43.900Z,100055.00
2018-07-06T16:55:11.613Z,100054.00
2018-07-06T16:57:39.456Z,100053.00
2018-07-06T17:00:07.141Z,100054.00
2018-07-06T17:02:34.798Z,100049.00
2018-07-06T17:05:02.493Z,100056.00
2018-07-06T17:07:30.190Z,100053.00
2018-07-06T17:09:57.944Z,100054.00
2018-07-06T17:12:25.642Z,100053.00
2018-07-06T17:14:53.268Z,100056.00
2018-07-06T17:17:20.940Z,100054.00
2018-07-06T17:19:48.604Z,100059.00
2018-07-06T17:22:16.242Z,100051.00
2018-07-06T17:24:43.908Z,100052.00
2018-07-06T17:27:11.526Z,100046.00
2018-07-06T17:29:39.230Z,100047.00
2018-07-06T17:32:07.999Z,100046.00
2018-07-06T17:34:35.615Z,100044.00
2018-07-06T17:37:03.270Z,100045.00
2018-07-06T17:39:30.917Z,100049.00
2018-07-06T17:41:58.596Z,100048.00
2018-07-06T17:44:26.390Z,100048.00
2018-07-06T17:46:53.921Z,100046.00
2018-07-06T17:49:21.564Z,100050.00
2018-07-06T17:51:49.194Z,100049.00
2018-07-06T17:54:16.991Z,100046.00
2018-07-06T17:56:44.603Z,100051.00
2018-07-06T17:59:12.228Z,100055.00
2018-07-06T18:01:39.964Z,100052.00
2018-07-06T18:04:07.636Z,100051.00
2018-07-06T18:06:35.308Z,100049.00
2018-07-06T18:09:03.297Z,100051.00
2018-07-06T18:11:31.033Z,100052.00
2018-07-06T18:13:58.672Z,100054.00
2018-07-06T18:16:26.405Z,100058.00
2018-07-06T18:18:54.044Z,100061.00
2018-07-06T18:21:21.676Z,100077.00
2018-07-06T18:23:49.440Z,100071.00
2018-07-06T18:26:17.140Z,100068.00
2018-07-06T18:28:45.683Z,100071.00
2018-07-06T18:31:13.457Z,100073.00
2018-07-06T18:33:41.621Z,100067.00
2018-07-06T18:36:09.724Z,100066.00
2018-07-06T18:38:37.446Z,100075.00
2018-07-06T18:41:09.128Z,100080.00
2018-07-06T18:43:36.853Z,100082.00
2018-07-06T18:46:04.620Z,100081.00
2018-07-06T18:48:32.241Z,100091.00
2018-07-06T18:50:59.881Z,100089.00
2018-07-06T18:53:27.524Z,100087.00
2018-07-06T18:55:55.253Z,100090.00
2018-07-06T18:58:23.335Z,100093.00
2018-07-06T19:00:51.368Z,100093.00
2018-07-06T19:03:19.271Z,100097.00
2018-07-06T19:05:47.024Z,100095.00
2018-07-06T19:08:14.789Z,100103.00
2018-07-06T19:10:44.897Z,100107.00
2018-07-06T19:13:12.612Z,100106.00
2018-07-06T19:15:40.692Z,100113.00
2018-07-06T19:18:08.313Z,100113.00
2018-07-06T19:20:36.287Z,100117.00
2018-07-06T19:23:03.901Z,100122.00
2018-07-06T19:25:31.525Z,100124.00
2018-07-06T19:27:59.393Z,100128.00
2018-07-06T19:30:27.044Z,100135.00
2018-07-06T19:32:54.718Z,100136.00
2018-07-06T19:35:22.337Z,100147.00
2018-07-06T19:37:50.029Z,100150.00
2018-07-06T19:40:17.636Z,100156.00
2018-07-06T19:42:45.269Z,100154.00
2018-07-06T19:45:12.896Z,100159.00
2018-07-06T19:47:40.531Z,100162.00
2018-07-06T19:50:08.256Z,100163.00
2018-07-06T19:52:37.686Z,100165.00
2018-07-06T19:55:05.389Z,100169.00
2018-07-06T19:57:33.112Z,100174.00
2018-07-06T20:00:00.746Z,100178.00
2018-07-06T20:02:28.441Z,100178.00
2018-07-06T20:04:56.085Z,100180.00
2018-07-06T20:07:23.723Z,100184.00
2018-07-06T20:09:51.323Z,100183.00
2018-07-06T20:12:19.061Z,100183.00
2018-07-06T20:14:46.764Z,100183.00
2018-07-06T20:17:14.476Z,100184.00
2018-07-06T20:19:42.175Z,100185.00
2018-07-06T20:22:09.808Z,100192.00
2018-07-06T20:24:37.454Z,100197.00
2018-07-06T20:27:05.737Z,100199.00
2018-07-06T20:29:33.554Z,100200.00
2018-07-06T20:32:02.405Z,100203.00
2018-07-06T20:34:30.057Z,100203.00
2018-07-06T20:36:57.683Z,100211.00
2018-07-06T20:39:25.326Z,100211.00
2018-07-06T20:41:53.001Z,100215.00
2018-07-06T20:44:20.957Z,100210.00
2018-07-06T20:46:48.672Z,100210.00
2018-07-06T20:49:17.581Z,100214.00
2018-07-06T20:51:45.275Z,100216.00
2018-07-06T20:54:13.014Z,100220.00
2018-07-06T20:56:40.673Z,100223.00
2018-07-06T20:59:08.314Z,100221.00
2018-07-06T21:01:35.938Z,100225.00
2018-07-06T21:04:03.733Z,100232.00
2018-07-06T21:06:31.374Z,100227.00
2018-07-06T21:08:59.023Z,100226.00
2018-07-06T21:11:26.719Z,100224.00
2018-07-06T21:13:54.453Z,100226.00
2018-07-06T21:16:22.486Z,100232.00
2018-07-06T21:18:50.129Z,100234.00
2018-07-06T21:21:17.876Z,100233.00
2018-07-06T21:23:45.489Z,100238.00
2018-07-06T21:26:13.230Z,100233.00
2018-07-06T21:28:41.159Z,100233.00
2018-07-06T21:31:08.781Z,100237.00
2018-07-06T21:33:36.420Z,100238.00
2018-07-06T21:36:04.093Z,100240.00
2018-07-06T21:38:31.743Z,100241.00
2018-07-06T21:40:59.505Z,100236.00
2018-07-06T21:43:27.179Z,100241.00
2018-07-06T21:45:54.788Z,100241.00
2018-07-06T21:48:22.453Z,100239.00
2018-07-06T21:50:50.128Z,100238.00
2018-07-06T21:53:17.725Z,100239.00
2018-07-06T21:55:45.467Z,100237.00
2018-07-06T21:58:13.129Z,100241.00
2018-07-06T22:00:41.605Z,100242.00
2018-07-06T22:03:11.104Z,100248.00
2018-07-06T22:05:39.704Z,100246.00
2018-07-06T22:08:07.545Z,100248.00
2018-07-06T22:10:36.108Z,100251.00
2018-07-06T22:13:04.501Z,100249.00
2018-07-06T22:15:38.503Z,100252.00
2018-07-06T22:18:06.178Z,100255.00
2018-07-06T22:20:33.859Z,100253.00
2018-07-06T22:23:01.592Z,100254.00
2018-07-06T22:25:29.264Z,100251.00
2018-07-06T22:27:56.865Z,100249.00
2018-07-06T22:30:24.616Z,100248.00
2018-07-06T22:32:52.254Z,100248.00
2018-07-06T22:35:19.973Z,100248.00
2018-07-06T22:37:47.640Z,100252.00
2018-07-06T22:40:15.969Z,100253.00
2018-07-06T22:42:43.850Z,100252.00
2018-07-06T22:45:11.977Z,100256.00
2018-07-06T22:47:39.686Z,100257.00
2018-07-06T22:50:07.563Z,100255.00
2018-07-06T22:52:35.256Z,100250.00
2018-07-06T22:55:02.897Z,100259.00
2018-07-06T22:57:30.526Z,100256.00
2018-07-06T22:59:58.545Z,100257.00
2018-07-06T23:02:26.359Z,100257.00
2018-07-06T23:04:53.986Z,100259.00
2018-07-06T23:07:21.661Z,100262.00
2018-07-06T23:09:49.428Z,100264.00
2018-07-06T23:12:17.092Z,100259.00
2018-07-06T23:14:44.717Z,100258.00
2018-07-06T23:17:12.514Z,100260.00
2018-07-06T23:19:40.192Z,100267.00
2018-07-06T23:22:07.848Z,100267.00
2018-07-06T23:24:35.464Z,100271.00
2018-07-06T23:27:03.180Z,100269.00
2018-07-06T23:29:30.785Z,100266.00
2018-07-06T23:31:58.467Z,100265.00
2018-07-06T23:34:26.101Z,100274.00
2018-07-06T23:36:53.893Z,100274.00
2018-07-06T23:39:21.581Z,100276.00
2018-07-06T23:41:56.676Z,100281.00
2018-07-06T23:44:24.404Z,100283.00
2018-07-06T23:46:52.053Z,100282.00
2018-07-06T23:49:19.740Z,100292.00
2018-07-06T23:51:47.517Z,100292.00
2018-07-06T23:54:15.195Z,100292.00
2018-07-06T23:56:42.845Z,100301.00
2018-07-06T23:59:10.480Z,100305.00
